createdAt,value
2023-01-02T00:00:53.653Z,99332.52
2023-01-02T00:05:55.721Z,99332.88
2023-01-02T00:10:57.993Z,99329.87
2023-01-02T00:16:01.346Z,99323.33
2023-01-02T00:21:05.329Z,99320.27
2023-01-02T00:26:07.424Z,99320.26
2023-01-02T00:31:13.795Z,99311.64
2023-01-02T00:36:15.851Z,99313.36
2023-01-02T00:41:19.053Z,99313.61
2023-01-02T00:46:20.876Z,99319.64
2023-01-02T00:51:22.595Z,99322.67
2023-01-02T00:56:24.377Z,99321.82
2023-01-02T01:01:26.309Z,99318.23
2023-01-02T01:06:28.236Z,99314.73
2023-01-02T01:11:30.045Z,99312.41
2023-01-02T01:16:32.517Z,99310.33
2023-01-02T01:21:34.256Z,99305.88
2023-01-02T01:26:35.953Z,99308.55
2023-01-02T01:31:37.701Z,99305.58
2023-01-02T01:36:39.634Z,99297.98
2023-01-02T01:41:41.339Z,99300.48
2023-01-02T01:46:45.277Z,99296.17
2023-01-02T01:51:54.186Z,99287.15
2023-01-02T01:57:01.857Z,99278.05
2023-01-02T02:02:03.904Z,99272.88
2023-01-02T02:07:06.159Z,99255.02
2023-01-02T02:12:08.716Z,99241.81
2023-01-02T02:17:22.437Z,99235.90
2023-01-02T02:22:42.791Z,99237.96
2023-01-02T02:27:59.641Z,99237.00
2023-01-02T02:33:15.554Z,99234.15
2023-01-02T02:38:52.279Z,99232.15
2023-01-02T02:44:31.303Z,99220.68
2023-01-02T02:49:58.019Z,99220.77
2023-01-02T02:55:22.273Z,99218.08
2023-01-02T03:00:24.717Z,99219.77
2023-01-02T03:05:35.104Z,99216.08
2023-01-02T03:10:50.108Z,99213.89
2023-01-02T03:16:09.647Z,99213.50
2023-01-02T03:21:18.685Z,99220.33
2023-01-02T03:26:26.051Z,99216.34
2023-01-02T03:31:34.410Z,99212.73
2023-01-02T03:36:40.267Z,99212.50
2023-01-02T03:41:48.781Z,99210.38
2023-01-02T03:47:15.171Z,99210.08
2023-01-02T03:52:21.016Z,99204.58
2023-01-02T03:57:38.217Z,99197.89
2023-01-02T04:03:26.242Z,99206.14
2023-01-02T04:08:37.978Z,99199.07
2023-01-02T04:13:44.343Z,99196.84
2023-01-02T04:18:58.207Z,99196.48
2023-01-02T04:24:09.409Z,99196.14
2023-01-02T04:29:11.573Z,99187.94
2023-01-02T04:34:16.400Z,99181.86
2023-01-02T04:39:21.773Z,99176.98
2023-01-02T04:44:24.127Z,99172.92
2023-01-02T04:49:27.223Z,99171.96
2023-01-02T04:54:29.078Z,99172.03
2023-01-02T04:59:30.858Z,99176.05
2023-01-02T05:04:32.556Z,99169.65
2023-01-02T05:09:34.411Z,99164.02
2023-01-02T05:14:36.147Z,99160.06
2023-01-02T05:19:37.857Z,99165.88
2023-01-02T05:24:39.543Z,99170.38
2023-01-02T05:29:41.323Z,99178.62
2023-01-02T05:34:43.063Z,99183.95
2023-01-02T05:39:44.787Z,99187.59
2023-01-02T05:44:47.044Z,99192.41
2023-01-02T05:49:48.772Z,99198.68
2023-01-02T05:54:50.594Z,99204.89
2023-01-02T05:59:52.356Z,99201.61
2023-01-02T06:04:54.064Z,99196.44
2023-01-02T06:09:55.781Z,99187.44
2023-01-02T06:14:57.464Z,99189.14
2023-01-02T06:19:59.196Z,99198.58
2023-01-02T06:25:00.875Z,99204.23
2023-01-02T06:30:05.322Z,99196.02
2023-01-02T06:35:07.287Z,99185.77
2023-01-02T06:40:09.173Z,99185.45
2023-01-02T06:45:11.413Z,99188.95
2023-01-02T06:50:13.234Z,99183.06
2023-01-02T06:55:14.968Z,99182.21
2023-01-02T07:00:18.986Z,99175.31
2023-01-02T07:05:24.574Z,99176.42
2023-01-02T07:10:26.610Z,99183.52
2023-01-02T07:15:28.579Z,99179.48
2023-01-02T07:20:30.303Z,99181.65
2023-01-02T07:25:32.071Z,99182.83
2023-01-02T07:30:33.807Z,99182.65
2023-01-02T07:35:35.584Z,99177.48
2023-01-02T07:40:37.292Z,99176.63
2023-01-02T07:45:39.048Z,99175.36
2023-01-02T07:50:41.324Z,99169.84
2023-01-02T07:55:43.248Z,99165.36
2023-01-02T08:00:44.934Z,99160.92
2023-01-02T08:05:46.734Z,99165.84
2023-01-02T08:10:48.510Z,99159.49
2023-01-02T08:15:50.203Z,99163.70
2023-01-02T08:20:51.957Z,99154.92
2023-01-02T08:25:57.849Z,99155.70
2023-01-02T08:31:00.528Z,99148.62
2023-01-02T08:36:02.380Z,99145.81
2023-01-02T08:41:04.299Z,99146.64
2023-01-02T08:46:08.138Z,99147.45
2023-01-02T08:51:09.934Z,99148.35
2023-01-02T08:56:17.869Z,99154.71
2023-01-02T09:01:20.017Z,99149.73
2023-01-02T09:06:23.869Z,99143.03
2023-01-02T09:11:26.939Z,99136.83
2023-01-02T09:16:28.857Z,99130.77
2023-01-02T09:21:30.691Z,99134.73
2023-01-02T09:26:32.477Z,99129.89
2023-01-02T09:31:34.719Z,99131.48
2023-01-02T09:36:36.833Z,99130.66
2023-01-02T09:41:42.359Z,99124.83
2023-01-02T09:46:57.136Z,99125.90
2023-01-02T09:51:59.176Z,99116.51
2023-01-02T09:57:27.712Z,99109.92
2023-01-02T10:02:35.635Z,99105.02
2023-01-02T10:08:01.555Z,99098.39
2023-01-02T10:13:18.876Z,99096.06
2023-01-02T10:18:29.951Z,99090.94
2023-01-02T10:23:54.066Z,99088.52
2023-01-02T10:29:24.045Z,99084.13
2023-01-02T10:34:41.658Z,99075.70
2023-01-02T10:39:46.439Z,99076.89
2023-01-02T10:44:48.333Z,99084.77
2023-01-02T10:49:52.171Z,99081.83
2023-01-02T10:54:59.908Z,99076.53
2023-01-02T11:00:04.377Z,99071.31
2023-01-02T11:05:16.123Z,99046.25
2023-01-02T11:10:33.161Z,99047.18
2023-01-02T11:15:43.441Z,99043.53
2023-01-02T11:20:52.257Z,99049.82
2023-01-02T11:25:54.642Z,99045.94
2023-01-02T11:31:15.063Z,99038.94
2023-01-02T11:36:18.636Z,99040.00
2023-01-02T11:41:49.053Z,99042.23
2023-01-02T11:46:52.036Z,99033.66
2023-01-02T11:52:01.850Z,99028.43
2023-01-02T11:57:04.086Z,99030.48
2023-01-02T12:02:20.429Z,99036.05
2023-01-02T12:07:46.860Z,99035.52
2023-01-02T12:13:00.595Z,99036.95
2023-01-02T12:18:11.376Z,99043.25
2023-01-02T12:23:45.884Z,99040.42
2023-01-02T12:29:09.415Z,99034.09
2023-01-02T12:34:26.404Z,99011.20
2023-01-02T12:39:30.906Z,99007.41
2023-01-02T12:44:48.113Z,98999.79
2023-01-02T12:49:59.016Z,99001.47
2023-01-02T12:55:19.665Z,99001.34
2023-01-02T13:00:36.006Z,98996.22
2023-01-02T13:05:51.320Z,98993.23
2023-01-02T13:10:54.510Z,98997.44
2023-01-02T13:16:03.760Z,98995.70
2023-01-02T13:21:21.209Z,98998.35
2023-01-02T13:26:26.280Z,99001.11
2023-01-02T13:31:48.219Z,98991.77
2023-01-02T13:36:57.748Z,98994.77
2023-01-02T13:42:21.313Z,98997.69
2023-01-02T13:47:34.894Z,99000.20
2023-01-02T13:52:37.571Z,99001.48
2023-01-02T13:57:39.301Z,99003.45
2023-01-02T14:02:41.042Z,99002.83
2023-01-02T14:07:45.837Z,99003.33
2023-01-02T14:12:57.562Z,99002.46
2023-01-02T14:18:05.861Z,98998.46
2023-01-02T14:23:10.821Z,98998.36
2023-01-02T14:28:21.833Z,99002.11
2023-01-02T14:33:33.694Z,99018.64
2023-01-02T14:38:41.392Z,99016.60
2023-01-02T14:43:45.001Z,99016.59
2023-01-02T14:49:25.028Z,99020.30
2023-01-02T14:54:42.368Z,99035.62
2023-01-02T14:59:48.830Z,99041.75
2023-01-02T15:04:57.005Z,99031.63
2023-01-02T15:10:04.184Z,99035.76
2023-01-02T15:15:09.082Z,99036.85
2023-01-02T15:20:26.501Z,99030.94
2023-01-02T15:25:37.810Z,99026.35
2023-01-02T15:30:40.324Z,99015.41
2023-01-02T15:35:42.128Z,99022.77
2023-01-02T15:40:44.863Z,99023.01
2023-01-02T15:45:51.346Z,99028.08
2023-01-02T15:50:56.165Z,99038.60
2023-01-02T15:55:58.713Z,99039.98
2023-01-02T16:01:16.273Z,99040.52
2023-01-02T16:06:24.086Z,99046.71
2023-01-02T16:11:26.847Z,99044.88
2023-01-02T16:16:48.593Z,99055.66
2023-01-02T16:21:59.952Z,99052.72
2023-01-02T16:27:02.247Z,99048.77
2023-01-02T16:32:03.995Z,99047.28
2023-01-02T16:37:28.771Z,99043.85
2023-01-02T16:42:36.823Z,99056.60
2023-01-02T16:47:40.977Z,99048.59
2023-01-02T16:52:43.368Z,99046.30
2023-01-02T16:57:45.114Z,99061.23
2023-01-02T17:02:47.660Z,99061.20
2023-01-02T17:07:49.591Z,99060.37
2023-01-02T17:12:51.391Z,99060.70
2023-01-02T17:17:53.076Z,99051.90
2023-01-02T17:22:55.126Z,99053.31
2023-01-02T17:27:57.408Z,99065.70
2023-01-02T17:33:03.937Z,99062.07
2023-01-02T17:38:07.061Z,99063.31
2023-01-02T17:43:08.735Z,99061.56
2023-01-02T17:48:12.842Z,99067.52
2023-01-02T17:53:16.006Z,99073.34
2023-01-02T17:58:17.835Z,99078.25
2023-01-02T18:03:19.585Z,99077.41
2023-01-02T18:08:21.866Z,99081.69
2023-01-02T18:13:23.750Z,99089.27
2023-01-02T18:18:27.572Z,99095.30
2023-01-02T18:23:29.298Z,99088.94
2023-01-02T18:28:30.975Z,99093.34
2023-01-02T18:33:33.278Z,99093.88
2023-01-02T18:38:38.145Z,99083.83
2023-01-02T18:43:41.640Z,99084.15
2023-01-02T18:48:43.873Z,99073.99
2023-01-02T18:53:54.321Z,99072.21
2023-01-02T18:59:14.212Z,99087.69
2023-01-02T19:04:28.211Z,99086.77
2023-01-02T19:09:36.580Z,99087.52
2023-01-02T19:14:41.206Z,99091.88
2023-01-02T19:19:44.400Z,99096.14
2023-01-02T19:24:46.596Z,99095.55
2023-01-02T19:29:49.293Z,99107.45
2023-01-02T19:34:52.874Z,99121.67
2023-01-02T19:39:57.337Z,99109.41
2023-01-02T19:45:00.969Z,99108.58
2023-01-02T19:50:05.181Z,99123.63
2023-01-02T19:55:08.499Z,99115.09
2023-01-02T20:00:13.981Z,99112.63
2023-01-02T20:05:21.350Z,99119.70
2023-01-02T20:10:24.708Z,99127.06
2023-01-02T20:15:28.303Z,99143.06
2023-01-02T20:20:30.254Z,99147.14
2023-01-02T20:25:33.194Z,99137.44
2023-01-02T20:30:35.018Z,99143.50
2023-01-02T20:35:36.716Z,99148.98
2023-01-02T20:40:38.404Z,99151.85
2023-01-02T20:45:40.252Z,99159.52
2023-01-02T20:50:42.068Z,99164.80
2023-01-02T20:55:44.564Z,99167.31
2023-01-02T21:00:47.525Z,99171.88
2023-01-02T21:05:49.284Z,99178.47
2023-01-02T21:10:51.110Z,99177.83
2023-01-02T21:15:53.003Z,99178.80
2023-01-02T21:21:17.689Z,99178.36
2023-01-02T21:26:21.828Z,99178.39
2023-01-02T21:31:23.700Z,99182.73
2023-01-02T21:36:25.438Z,99181.27
2023-01-02T21:41:45.928Z,99182.85
2023-01-02T21:46:47.673Z,99191.68
2023-01-02T21:51:49.348Z,99195.28
2023-01-02T21:56:51.092Z,99192.30
2023-01-02T22:01:54.524Z,99190.19
2023-01-02T22:12:21.981Z,99212.67
2023-01-02T22:17:23.739Z,99220.39
2023-01-02T22:22:25.595Z,99235.77
2023-01-02T22:27:28.650Z,99235.32
2023-01-02T22:32:34.374Z,99231.91
2023-01-02T22:37:36.283Z,99237.77
2023-01-02T22:43:10.432Z,99233.92
2023-01-02T22:48:20.610Z,99240.05
2023-01-02T22:53:34.410Z,99242.89
2023-01-02T22:58:36.135Z,99240.56
2023-01-02T23:03:42.600Z,99244.67
2023-01-02T23:08:44.454Z,99252.58
2023-01-02T23:13:50.275Z,99257.65
2023-01-02T23:19:14.939Z,99248.58
2023-01-02T23:24:20.054Z,99247.23
2023-01-02T23:29:23.231Z,99241.83
2023-01-02T23:34:27.447Z,99234.94
2023-01-02T23:39:31.041Z,99229.97
2023-01-02T23:44:32.727Z,99241.42
2023-01-02T23:49:34.388Z,99239.58
2023-01-02T23:54:36.091Z,99225.40
2023-01-02T23:59:37.816Z,99232.28
